YPGV/GOV METAR and TAF weather

Enter ICAO airport designator
Station Type Date Time Source
YPGV METAR 2020/06/03 15:00 UTC NOAA

YPGV 031500Z AUTO 13011KT 9999 // SCT030 ///// Q1016


Station Type Date Time Source
YPGV Decoded METAR 2020/06/03 15:00 UTC NOAA

Station name not available
Jun 03, 2020 - 11:00 AM EDT / 2020.06.03 1500 UTC
Wind: from the SE (130 degrees) at 13 MPH (11 KT):0
Visibility: greater than 7 mile(s):0
Sky conditions: partly cloudy
Pressure (altimeter): 30.00 in. Hg (1016 hPa)
ob: YPGV 031500Z AUTO 13011KT 9999 // SCT030 ///// Q1016
cycle: 15

Station Type Date Time Source
YPGV TAF 2020/06/03 14:00 UTC NOAA

TAF YPGV 031222Z 0314/0402 14010KT 9999 SCT025
FM032300 14016KT 9999 SCT030

Example: see airport list